createdAt,value
2023-04-18T00:00:07.382Z,2148.00
2023-04-18T00:01:07.375Z,2144.00
2023-04-18T00:02:07.519Z,2129.00
2023-04-18T00:03:07.513Z,2116.00
2023-04-18T00:04:07.563Z,2092.00
2023-04-18T00:05:07.486Z,2068.00
2023-04-18T00:06:07.455Z,2048.00
2023-04-18T00:07:07.500Z,2029.00
2023-04-18T00:08:07.500Z,2036.00
2023-04-18T00:09:07.585Z,2005.00
2023-04-18T00:10:07.577Z,1992.00
2023-04-18T00:11:07.602Z,1994.00
2023-04-18T00:12:07.623Z,1975.00
2023-04-18T00:13:07.651Z,1979.00
2023-04-18T00:14:07.703Z,2005.00
2023-04-18T00:15:07.742Z,2002.00
2023-04-18T00:16:07.736Z,2009.00
2023-04-18T00:17:07.784Z,2019.00
2023-04-18T00:18:07.762Z,2020.00
2023-04-18T00:19:07.788Z,2059.00
2023-04-18T00:20:07.831Z,2032.00
2023-04-18T00:21:07.803Z,2023.00
2023-04-18T00:22:07.823Z,2039.00
2023-04-18T00:23:07.846Z,2026.00
2023-04-18T00:24:07.863Z,2073.00
2023-04-18T00:25:07.873Z,2100.00
2023-04-18T00:26:07.889Z,2123.00
2023-04-18T00:27:07.915Z,2121.00
2023-04-18T00:28:07.908Z,2133.00
2023-04-18T00:29:07.909Z,2093.00
2023-04-18T00:30:07.951Z,2138.00
2023-04-18T00:31:08.031Z,2133.00
2023-04-18T00:32:07.944Z,2145.00
2023-04-18T00:33:07.941Z,2131.00
2023-04-18T00:34:07.958Z,2166.00
2023-04-18T00:35:07.976Z,2178.00
2023-04-18T00:36:07.998Z,2191.00
2023-04-18T00:37:07.999Z,2202.00
2023-04-18T00:38:07.993Z,2211.00
2023-04-18T00:39:08.007Z,2217.00
2023-04-18T00:40:08.022Z,2215.00
2023-04-18T00:41:08.030Z,2229.00
2023-04-18T00:42:08.026Z,2245.00
2023-04-18T00:43:08.067Z,2246.00
2023-04-18T00:44:08.091Z,2240.00
2023-04-18T00:45:08.088Z,2233.00
2023-04-18T00:46:08.149Z,2238.00
2023-04-18T00:47:08.120Z,2237.00
2023-04-18T00:48:08.154Z,2236.00
2023-04-18T00:49:08.168Z,2225.00
2023-04-18T00:50:08.169Z,2217.00
2023-04-18T00:51:08.166Z,2222.00
2023-04-18T00:52:08.218Z,2241.00
2023-04-18T00:53:08.187Z,2224.00
2023-04-18T00:54:08.205Z,2238.00
2023-04-18T00:55:08.212Z,2244.00
2023-04-18T00:56:08.242Z,2206.00
2023-04-18T00:57:08.241Z,2211.00
2023-04-18T00:58:08.282Z,2205.00
2023-04-18T00:59:08.278Z,2203.00
2023-04-18T01:00:08.321Z,2180.00
2023-04-18T01:01:08.384Z,2178.00
2023-04-18T01:02:08.426Z,2164.00
2023-04-18T01:03:08.632Z,2171.00
2023-04-18T01:04:08.556Z,2154.00
2023-04-18T01:05:08.527Z,2140.00
2023-04-18T01:06:08.555Z,2141.00
2023-04-18T01:07:08.572Z,2124.00
2023-04-18T01:08:08.606Z,2126.00
2023-04-18T01:09:08.624Z,2141.00
2023-04-18T01:10:08.651Z,2144.00
2023-04-18T01:11:08.648Z,2156.00
2023-04-18T01:12:08.710Z,2174.00
2023-04-18T01:13:08.714Z,2198.00
2023-04-18T01:14:08.747Z,2197.00
2023-04-18T01:15:08.763Z,2176.00
2023-04-18T01:16:08.787Z,2153.00
2023-04-18T01:17:08.760Z,2167.00
2023-04-18T01:18:08.778Z,2166.00
2023-04-18T01:19:08.767Z,2135.00
2023-04-18T01:20:08.802Z,2142.00
2023-04-18T01:21:08.824Z,2149.00
2023-04-18T01:22:08.860Z,2139.00
2023-04-18T01:23:08.885Z,2128.00
2023-04-18T01:24:08.908Z,2119.00
2023-04-18T01:25:08.946Z,2128.00
2023-04-18T01:26:08.925Z,2107.00
2023-04-18T01:27:08.925Z,2117.00
2023-04-18T01:28:08.978Z,2127.00
2023-04-18T01:29:08.976Z,2139.00
2023-04-18T01:30:08.972Z,2119.00
2023-04-18T01:31:09.034Z,2126.00
2023-04-18T01:32:08.990Z,2148.00
2023-04-18T01:33:09.051Z,2120.00
2023-04-18T01:34:09.025Z,2130.00
2023-04-18T01:35:09.039Z,2146.00
2023-04-18T01:36:09.054Z,2137.00
2023-04-18T01:37:09.022Z,2148.00
2023-04-18T01:38:09.063Z,2151.00
2023-04-18T01:39:09.064Z,2154.00
2023-04-18T01:40:09.068Z,2145.00
2023-04-18T01:41:09.070Z,2153.00
2023-04-18T01:42:09.122Z,2140.00
2023-04-18T01:43:09.099Z,2131.00
2023-04-18T01:44:09.119Z,2113.00
2023-04-18T01:45:09.131Z,2098.00
2023-04-18T01:46:09.161Z,2104.00
2023-04-18T01:47:09.130Z,2096.00
2023-04-18T01:48:09.197Z,2098.00
2023-04-18T01:49:09.179Z,2086.00
2023-04-18T01:50:09.217Z,2070.00
2023-04-18T01:51:09.249Z,2025.00
2023-04-18T01:52:09.293Z,2000.00
2023-04-18T01:53:09.299Z,1992.00
2023-04-18T01:54:09.292Z,1990.00
2023-04-18T01:55:09.336Z,1976.00
2023-04-18T01:56:09.394Z,1962.00
2023-04-18T01:57:09.398Z,1992.00
2023-04-18T01:58:09.423Z,1965.00
2023-04-18T01:59:09.427Z,1953.00
2023-04-18T02:00:09.466Z,1967.00
2023-04-18T02:01:09.521Z,1962.00
2023-04-18T02:02:09.562Z,1972.00
2023-04-18T02:03:09.704Z,1976.00
2023-04-18T02:04:09.661Z,1979.00
2023-04-18T02:05:09.618Z,1976.00
2023-04-18T02:06:09.617Z,1956.00
2023-04-18T02:07:09.632Z,1995.00
2023-04-18T02:08:09.670Z,1993.00
2023-04-18T02:09:09.706Z,1999.00
2023-04-18T02:10:09.730Z,2003.00
2023-04-18T02:11:09.752Z,1985.00
2023-04-18T02:12:09.777Z,2004.00
2023-04-18T02:13:09.816Z,2031.00
2023-04-18T02:14:09.846Z,2002.00
2023-04-18T02:15:09.908Z,2020.00
2023-04-18T02:16:09.950Z,2012.00
2023-04-18T02:17:09.955Z,2010.00
2023-04-18T02:18:09.986Z,2027.00
2023-04-18T02:19:10.021Z,2016.00
2023-04-18T02:20:10.031Z,2010.00
2023-04-18T02:21:10.062Z,2015.00
2023-04-18T02:22:10.122Z,2043.00
2023-04-18T02:23:10.105Z,2013.00
2023-04-18T02:24:10.123Z,2028.00
2023-04-18T02:25:10.149Z,2008.00
2023-04-18T02:26:10.169Z,2005.00
2023-04-18T02:27:10.171Z,2030.00
2023-04-18T02:28:10.174Z,2031.00
2023-04-18T02:29:10.218Z,2034.00
2023-04-18T02:30:10.235Z,2028.00
2023-04-18T02:31:10.221Z,2022.00
2023-04-18T02:32:10.307Z,2038.00
2023-04-18T02:33:10.315Z,2034.00
2023-04-18T02:34:10.350Z,2076.00
2023-04-18T02:35:10.455Z,2077.00
2023-04-18T02:36:10.350Z,2083.00
2023-04-18T02:37:10.364Z,2081.00
2023-04-18T02:38:10.365Z,2081.00
2023-04-18T02:39:10.404Z,2072.00
2023-04-18T02:40:10.373Z,2098.00
2023-04-18T02:41:10.394Z,2104.00
2023-04-18T02:42:10.414Z,2120.00
2023-04-18T02:43:10.430Z,2142.00
2023-04-18T02:44:10.435Z,2129.00
2023-04-18T02:45:10.603Z,2146.00
2023-04-18T02:46:10.525Z,2167.00
2023-04-18T02:47:10.447Z,2175.00
2023-04-18T02:48:10.511Z,2177.00
2023-04-18T02:49:10.580Z,2181.00
2023-04-18T02:50:10.516Z,2184.00
2023-04-18T02:51:10.688Z,2202.00
2023-04-18T02:52:10.516Z,2208.00
2023-04-18T02:53:10.529Z,2203.00
2023-04-18T02:54:10.543Z,2196.00
2023-04-18T02:55:10.547Z,2176.00
2023-04-18T02:56:10.581Z,2164.00
2023-04-18T02:57:10.583Z,2159.00
2023-04-18T02:58:10.611Z,2165.00
2023-04-18T02:59:10.607Z,2155.00
2023-04-18T03:00:10.629Z,2156.00
2023-04-18T03:01:10.670Z,2157.00
2023-04-18T03:02:10.670Z,2171.00
2023-04-18T03:03:10.680Z,2168.00
2023-04-18T03:04:10.655Z,2156.00
2023-04-18T03:05:10.783Z,2157.00
2023-04-18T03:06:10.668Z,2145.00
2023-04-18T03:07:10.683Z,2132.00
2023-04-18T03:08:10.700Z,2119.00
2023-04-18T03:09:10.707Z,2121.00
2023-04-18T03:10:10.721Z,2095.00
2023-04-18T03:11:10.720Z,2063.00
2023-04-18T03:12:10.728Z,2048.00
2023-04-18T03:13:10.741Z,2043.00
2023-04-18T03:14:10.853Z,2051.00
2023-04-18T03:15:10.769Z,2042.00
2023-04-18T03:16:10.781Z,2003.00
2023-04-18T03:17:10.754Z,1992.00
2023-04-18T03:18:10.764Z,1977.00
2023-04-18T03:19:10.825Z,1984.00
2023-04-18T03:20:10.834Z,1984.00
2023-04-18T03:21:10.874Z,1973.00
2023-04-18T03:22:10.914Z,1973.00
2023-04-18T03:23:10.928Z,1994.00
2023-04-18T03:24:12.236Z,2013.00
2023-04-18T03:25:11.008Z,2014.00
2023-04-18T03:26:11.094Z,2011.00
2023-04-18T03:27:11.101Z,1988.00
2023-04-18T03:28:11.114Z,1983.00
2023-04-18T03:29:11.108Z,2006.00
2023-04-18T03:30:11.145Z,2014.00
2023-04-18T03:31:11.186Z,2020.00
2023-04-18T03:32:11.164Z,2018.00
2023-04-18T03:33:11.170Z,2017.00
2023-04-18T03:34:11.247Z,2024.00
2023-04-18T03:35:11.203Z,2020.00
2023-04-18T03:36:11.205Z,2043.00
2023-04-18T03:37:11.246Z,2044.00
2023-04-18T03:38:11.277Z,2036.00
2023-04-18T03:39:11.297Z,2020.00
2023-04-18T03:40:11.358Z,2014.00
2023-04-18T03:41:11.369Z,1979.00
2023-04-18T03:42:11.407Z,2020.00
2023-04-18T03:43:11.414Z,2006.00
2023-04-18T03:44:11.661Z,1995.00
2023-04-18T03:45:11.445Z,1974.00
2023-04-18T03:46:11.541Z,1983.00
2023-04-18T03:47:11.463Z,2008.00
2023-04-18T03:48:11.468Z,2005.00
2023-04-18T03:49:11.499Z,2021.00
2023-04-18T03:50:11.484Z,1998.00
2023-04-18T03:51:11.498Z,1990.00
2023-04-18T03:52:11.510Z,1981.00
2023-04-18T03:53:11.540Z,1962.00
2023-04-18T03:54:11.695Z,1970.00
2023-04-18T03:55:11.605Z,1968.00
2023-04-18T03:56:11.625Z,1951.00
2023-04-18T03:57:11.642Z,1966.00
2023-04-18T03:58:11.667Z,2008.00
2023-04-18T03:59:11.663Z,2053.00
2023-04-18T04:00:11.678Z,2051.00
2023-04-18T04:01:11.760Z,2031.00
2023-04-18T04:02:11.839Z,2019.00
2023-04-18T04:03:11.990Z,2008.00
2023-04-18T04:04:12.091Z,1977.00
2023-04-18T04:05:11.835Z,1956.00
2023-04-18T04:06:11.811Z,1931.00
2023-04-18T04:07:11.865Z,1942.00
2023-04-18T04:08:11.833Z,1923.00
2023-04-18T04:09:11.848Z,1966.00
2023-04-18T04:10:11.878Z,1940.00
2023-04-18T04:11:12.038Z,1965.00
2023-04-18T04:12:11.933Z,1961.00
2023-04-18T04:13:11.972Z,1964.00
2023-04-18T04:14:12.339Z,1957.00
2023-04-18T04:15:11.957Z,1954.00
2023-04-18T04:16:11.996Z,1959.00
2023-04-18T04:17:11.970Z,1980.00
2023-04-18T04:18:11.963Z,1972.00
2023-04-18T04:19:11.984Z,1980.00
2023-04-18T04:20:11.994Z,1960.00
2023-04-18T04:21:12.020Z,1945.00
2023-04-18T04:22:12.062Z,1942.00
2023-04-18T04:23:12.107Z,1936.00
2023-04-18T04:24:12.349Z,1924.00
2023-04-18T04:25:12.141Z,1882.00
2023-04-18T04:26:12.155Z,1905.00
2023-04-18T04:27:12.139Z,1882.00
2023-04-18T04:28:12.148Z,1863.00
2023-04-18T04:29:12.182Z,1875.00
2023-04-18T04:30:13.482Z,1915.00
2023-04-18T04:31:12.177Z,1972.00
2023-04-18T04:32:12.230Z,2037.00
2023-04-18T04:33:12.220Z,2117.00
2023-04-18T04:34:12.451Z,2110.00
2023-04-18T04:35:12.222Z,2093.00
2023-04-18T04:36:12.249Z,2093.00
2023-04-18T04:37:12.275Z,2077.00
2023-04-18T04:38:12.320Z,2081.00
2023-04-18T04:39:12.319Z,2057.00
2023-04-18T04:40:12.376Z,2083.00
2023-04-18T04:41:12.386Z,2079.00
2023-04-18T04:42:12.383Z,2089.00
2023-04-18T04:43:12.398Z,2078.00
2023-04-18T04:44:12.569Z,2076.00
2023-04-18T04:45:12.419Z,2099.00
2023-04-18T04:46:12.471Z,2116.00
2023-04-18T04:47:12.449Z,2110.00
2023-04-18T04:48:12.519Z,2088.00
2023-04-18T04:49:12.487Z,2109.00
2023-04-18T04:50:12.502Z,2148.00
2023-04-18T04:51:12.505Z,2193.00
2023-04-18T04:52:12.549Z,2204.00
2023-04-18T04:53:12.520Z,2162.00
2023-04-18T04:54:12.784Z,2175.00
2023-04-18T04:55:12.611Z,2159.00
2023-04-18T04:56:12.643Z,2133.00
2023-04-18T04:57:12.664Z,2116.00
2023-04-18T04:58:12.680Z,2081.00
2023-04-18T04:59:12.701Z,2119.00
2023-04-18T05:00:12.732Z,2146.00
2023-04-18T05:01:12.813Z,2107.00
2023-04-18T05:02:12.912Z,2070.00
2023-04-18T05:03:12.987Z,2065.00
2023-04-18T05:04:13.108Z,2038.00
2023-04-18T05:05:12.793Z,2041.00
2023-04-18T05:06:12.813Z,2026.00
2023-04-18T05:07:12.809Z,2056.00
2023-04-18T05:08:12.840Z,2116.00
2023-04-18T05:09:12.942Z,2138.00
2023-04-18T05:10:12.846Z,2163.00
2023-04-18T05:11:12.892Z,2184.00
2023-04-18T05:12:12.931Z,2193.00
2023-04-18T05:13:12.975Z,2189.00
2023-04-18T05:14:13.216Z,2163.00
2023-04-18T05:15:13.014Z,2137.00
2023-04-18T05:16:13.065Z,2149.00
2023-04-18T05:17:13.002Z,2235.00
2023-04-18T05:18:13.020Z,2336.00
2023-04-18T05:19:13.053Z,2388.00
2023-04-18T05:20:13.072Z,2432.00
2023-04-18T05:21:13.103Z,2454.00
2023-04-18T05:22:13.150Z,2470.00
2023-04-18T05:23:13.162Z,2466.00
2023-04-18T05:24:13.407Z,2451.00
2023-04-18T05:25:13.175Z,2444.00
2023-04-18T05:26:13.164Z,2440.00
2023-04-18T05:27:13.192Z,2447.00
2023-04-18T05:28:13.636Z,2497.00
2023-04-18T05:29:13.228Z,2573.00
2023-04-18T05:30:13.225Z,2680.00
2023-04-18T05:31:13.289Z,2774.00
2023-04-18T05:32:13.255Z,2836.00
2023-04-18T05:33:13.303Z,2836.00
2023-04-18T05:34:13.545Z,2892.00
2023-04-18T05:35:41.145Z,500.00
2023-04-18T05:36:41.129Z,500.00
2023-04-18T05:37:41.137Z,500.00
2023-04-18T05:38:41.111Z,500.00
2023-04-18T05:39:41.098Z,500.00
2023-04-18T05:40:41.110Z,522.00
2023-04-18T05:41:41.102Z,538.00
2023-04-18T05:42:41.089Z,550.00
2023-04-18T05:43:42.926Z,554.00
2023-04-18T05:44:41.073Z,559.00
2023-04-18T05:45:41.070Z,557.00
2023-04-18T05:46:41.102Z,550.00
2023-04-18T05:47:41.162Z,546.00
2023-04-18T05:48:41.108Z,574.00
2023-04-18T05:49:41.062Z,589.00
2023-04-18T05:50:41.058Z,605.00
2023-04-18T05:51:41.038Z,599.00
2023-04-18T05:52:41.060Z,598.00
2023-04-18T05:53:41.014Z,601.00
2023-04-18T05:54:41.021Z,612.00
2023-04-18T05:55:41.354Z,615.00
2023-04-18T05:56:40.992Z,620.00
2023-04-18T05:57:40.971Z,630.00
2023-04-18T05:58:40.970Z,626.00
2023-04-18T05:59:40.969Z,635.00
2023-04-18T06:00:40.954Z,626.00
2023-04-18T06:01:40.963Z,592.00
2023-04-18T06:02:41.160Z,514.00
2023-04-18T06:03:41.502Z,500.00
2023-04-18T06:04:41.232Z,500.00
2023-04-18T06:05:41.102Z,502.00
2023-04-18T06:06:41.084Z,506.00
2023-04-18T06:07:41.115Z,501.00
2023-04-18T06:08:41.205Z,501.00
2023-04-18T06:09:41.206Z,503.00
2023-04-18T06:10:41.251Z,506.00
2023-04-18T06:11:41.299Z,504.00
2023-04-18T06:12:41.320Z,504.00
2023-04-18T06:13:41.852Z,500.00
2023-04-18T06:14:41.442Z,505.00
2023-04-18T06:15:41.433Z,497.00
2023-04-18T06:16:41.583Z,509.00
2023-04-18T06:17:41.585Z,502.00
2023-04-18T06:18:41.547Z,500.00
2023-04-18T06:19:41.554Z,504.00
2023-04-18T06:20:41.595Z,527.00
2023-04-18T06:21:41.595Z,533.00
2023-04-18T06:22:41.634Z,546.00
2023-04-18T06:23:41.687Z,530.00
2023-04-18T06:24:41.674Z,521.00
2023-04-18T06:25:41.747Z,531.00
2023-04-18T06:26:41.759Z,535.00
2023-04-18T06:27:41.734Z,529.00
2023-04-18T06:28:41.783Z,526.00
2023-04-18T06:29:41.785Z,528.00
2023-04-18T06:30:41.807Z,533.00
2023-04-18T06:31:41.909Z,572.00
2023-04-18T06:32:41.953Z,610.00
2023-04-18T06:33:41.964Z,632.00
2023-04-18T06:34:42.117Z,643.00
2023-04-18T06:35:42.005Z,654.00
2023-04-18T06:36:42.005Z,646.00
2023-04-18T06:37:42.064Z,608.00
2023-04-18T06:38:42.085Z,597.00
2023-04-18T06:39:42.136Z,593.00
2023-04-18T06:40:42.206Z,607.00
2023-04-18T06:41:42.213Z,610.00
2023-04-18T06:42:42.235Z,606.00
2023-04-18T06:43:52.126Z,627.00
2023-04-18T06:44:43.310Z,628.00
2023-04-18T06:45:42.312Z,632.00
2023-04-18T06:46:42.264Z,640.00
2023-04-18T06:47:42.304Z,657.00
2023-04-18T06:48:42.246Z,702.00
2023-04-18T06:49:42.246Z,721.00
2023-04-18T06:50:42.228Z,754.00
2023-04-18T06:51:42.258Z,797.00
2023-04-18T06:52:42.235Z,734.00
2023-04-18T06:53:42.231Z,729.00
2023-04-18T06:54:42.264Z,730.00
2023-04-18T06:55:42.272Z,712.00
2023-04-18T06:56:42.322Z,689.00
2023-04-18T06:57:42.419Z,661.00
2023-04-18T06:58:42.879Z,674.00
2023-04-18T06:59:42.442Z,660.00
2023-04-18T07:00:42.507Z,656.00
2023-04-18T07:01:42.523Z,657.00
2023-04-18T07:02:42.617Z,683.00
2023-04-18T07:03:42.935Z,660.00
2023-04-18T07:04:42.679Z,635.00
2023-04-18T07:05:42.616Z,608.00
2023-04-18T07:06:42.635Z,610.00
2023-04-18T07:07:42.675Z,604.00
2023-04-18T07:08:42.728Z,657.00
2023-04-18T07:09:42.738Z,775.00
2023-04-18T07:10:42.800Z,779.00
2023-04-18T07:11:42.894Z,769.00
2023-04-18T07:12:42.898Z,777.00
2023-04-18T07:13:42.949Z,696.00
2023-04-18T07:14:42.965Z,658.00
2023-04-18T07:15:42.986Z,643.00
2023-04-18T07:16:43.058Z,631.00
2023-04-18T07:17:43.065Z,617.00
2023-04-18T07:18:43.080Z,598.00
2023-04-18T07:19:43.146Z,583.00
2023-04-18T07:20:43.158Z,570.00
2023-04-18T07:21:43.191Z,579.00
2023-04-18T07:22:43.251Z,592.00
2023-04-18T07:23:43.302Z,601.00
2023-04-18T07:24:43.346Z,604.00
2023-04-18T07:25:44.269Z,591.00
2023-04-18T07:26:43.392Z,617.00
2023-04-18T07:27:43.417Z,650.00
2023-04-18T07:28:43.432Z,728.00
2023-04-18T07:29:43.440Z,761.00
2023-04-18T07:30:43.504Z,685.00
2023-04-18T07:31:43.503Z,624.00
2023-04-18T07:32:43.583Z,590.00
2023-04-18T07:33:43.647Z,555.00
2023-04-18T07:34:43.904Z,522.00
2023-04-18T07:35:43.935Z,500.00
2023-04-18T07:36:43.657Z,502.00
2023-04-18T07:37:43.715Z,500.00
2023-04-18T07:38:43.822Z,500.00
2023-04-18T07:39:43.818Z,507.00
2023-04-18T07:40:43.876Z,500.00
2023-04-18T07:41:43.915Z,502.00
2023-04-18T07:42:43.952Z,510.00
2023-04-18T07:43:44.016Z,500.00
2023-04-18T07:44:44.387Z,501.00
2023-04-18T07:45:44.066Z,503.00
2023-04-18T07:46:44.161Z,504.00
2023-04-18T07:47:44.207Z,510.00
2023-04-18T07:48:44.184Z,517.00
2023-04-18T07:49:44.395Z,526.00
2023-04-18T07:50:44.239Z,523.00
2023-04-18T07:51:44.283Z,512.00
2023-04-18T07:52:44.337Z,507.00
2023-04-18T07:53:44.357Z,510.00
2023-04-18T07:54:44.503Z,500.00
2023-04-18T07:55:44.402Z,500.00
2023-04-18T07:56:44.435Z,503.00
2023-04-18T07:57:45.846Z,506.00
2023-04-18T07:58:44.558Z,493.00
2023-04-18T07:59:44.576Z,501.00
2023-04-18T08:00:44.651Z,533.00
2023-04-18T08:01:44.671Z,549.00
2023-04-18T08:02:44.806Z,532.00
2023-04-18T08:03:44.904Z,514.00
2023-04-18T08:04:44.945Z,500.00
2023-04-18T08:05:44.838Z,500.00
2023-04-18T08:06:44.866Z,515.00
2023-04-18T08:07:44.878Z,506.00
2023-04-18T08:08:44.878Z,506.00
2023-04-18T08:09:44.878Z,501.00
2023-04-18T08:10:44.977Z,509.00
2023-04-18T08:11:44.904Z,489.00
2023-04-18T08:12:45.877Z,500.00
2023-04-18T08:13:44.967Z,514.00
2023-04-18T08:14:45.390Z,500.00
2023-04-18T08:15:45.090Z,506.00
2023-04-18T08:16:45.105Z,522.00
2023-04-18T08:17:45.244Z,519.00
2023-04-18T08:18:45.091Z,489.00
2023-04-18T08:19:45.404Z,637.00
2023-04-18T08:20:45.400Z,543.00
2023-04-18T08:21:45.170Z,517.00
2023-04-18T08:23:02.294Z,601.00
2023-04-18T08:23:46.208Z,603.00
2023-04-18T08:24:57.482Z,626.00
2023-04-18T08:25:46.232Z,609.00
2023-04-18T08:26:45.318Z,645.00
2023-04-18T08:27:45.210Z,788.00
2023-04-18T08:28:46.459Z,1091.00
2023-04-18T08:29:45.185Z,1468.00
2023-04-18T08:30:45.215Z,1508.00
2023-04-18T08:31:45.194Z,1526.00
2023-04-18T08:32:45.182Z,1541.00
2023-04-18T08:33:45.151Z,1537.00
2023-04-18T08:34:45.151Z,1579.00
2023-04-18T08:35:45.120Z,1569.00
2023-04-18T08:36:45.170Z,1609.00
2023-04-18T08:37:45.125Z,1605.00
2023-04-18T08:38:45.106Z,1601.00
2023-04-18T08:39:45.151Z,1576.00
2023-04-18T08:40:45.186Z,1420.00
2023-04-18T08:41:45.200Z,1536.00
2023-04-18T08:42:45.219Z,1504.00
2023-04-18T08:43:45.243Z,1422.00
2023-04-18T08:44:45.299Z,1416.00
2023-04-18T08:45:45.339Z,1442.00
2023-04-18T08:46:45.334Z,1448.00
2023-04-18T08:47:45.433Z,1433.00
2023-04-18T08:48:45.429Z,1462.00
2023-04-18T08:49:45.426Z,1509.00
2023-04-18T08:50:45.424Z,1481.00
2023-04-18T08:51:45.444Z,1488.00
2023-04-18T08:52:45.486Z,1473.00
2023-04-18T08:53:45.508Z,1394.00
2023-04-18T08:54:45.526Z,1237.00
2023-04-18T08:55:45.573Z,1269.00
2023-04-18T08:56:45.937Z,1304.00
2023-04-18T08:57:45.602Z,1330.00
2023-04-18T08:58:45.644Z,1397.00
2023-04-18T08:59:47.126Z,1366.00
2023-04-18T09:00:45.622Z,1361.00
2023-04-18T09:01:45.663Z,1374.00
2023-04-18T09:02:45.664Z,1396.00
2023-04-18T09:03:45.665Z,1421.00
2023-04-18T09:04:45.597Z,1402.00
2023-04-18T09:05:45.579Z,1399.00
2023-04-18T09:06:45.914Z,1364.00
2023-04-18T09:07:45.560Z,1351.00
2023-04-18T09:08:45.558Z,1339.00
2023-04-18T09:09:45.548Z,1283.00
2023-04-18T09:10:46.733Z,957.00
2023-04-18T09:11:45.935Z,886.00
2023-04-18T09:12:45.518Z,771.00
2023-04-18T09:13:45.515Z,777.00
2023-04-18T09:14:45.585Z,773.00
2023-04-18T09:15:45.511Z,750.00
2023-04-18T09:16:46.013Z,794.00
2023-04-18T09:17:45.594Z,676.00
2023-04-18T09:18:45.493Z,563.00
2023-04-18T09:19:45.485Z,540.00
2023-04-18T09:20:45.470Z,570.00
2023-04-18T09:21:45.925Z,605.00
2023-04-18T09:22:45.435Z,647.00
2023-04-18T09:23:45.449Z,720.00
2023-04-18T09:24:45.439Z,657.00
2023-04-18T09:25:45.917Z,755.00
2023-04-18T09:26:45.403Z,757.00
2023-04-18T09:27:45.398Z,767.00
2023-04-18T09:28:45.407Z,822.00
2023-04-18T09:29:45.402Z,885.00
2023-04-18T09:30:45.601Z,843.00
2023-04-18T09:31:45.406Z,779.00
2023-04-18T09:32:45.450Z,791.00
2023-04-18T09:33:45.358Z,805.00
2023-04-18T09:34:45.363Z,846.00
2023-04-18T09:35:45.367Z,815.00
2023-04-18T09:36:45.466Z,834.00
2023-04-18T09:37:45.349Z,565.00
2023-04-18T09:38:45.344Z,548.00
2023-04-18T09:39:45.344Z,430.00
2023-04-18T09:40:45.351Z,518.00
2023-04-18T09:41:45.429Z,444.00
2023-04-18T09:42:45.297Z,511.00
2023-04-18T09:43:45.293Z,549.00
2023-04-18T09:44:45.272Z,630.00
2023-04-18T09:45:45.313Z,628.00
2023-04-18T09:46:47.350Z,612.00
2023-04-18T09:47:45.378Z,534.00
2023-04-18T09:48:45.336Z,500.00
2023-04-18T09:49:45.341Z,492.00
2023-04-18T09:50:45.404Z,462.00
2023-04-18T09:51:45.422Z,473.00
2023-04-18T09:52:45.453Z,485.00
2023-04-18T09:53:45.482Z,512.00
2023-04-18T09:54:47.699Z,613.00
2023-04-18T09:55:45.507Z,596.00
2023-04-18T09:56:45.468Z,659.00
2023-04-18T09:57:45.461Z,656.00
2023-04-18T09:58:45.458Z,768.00
2023-04-18T09:59:45.472Z,836.00
2023-04-18T10:00:46.994Z,873.00
2023-04-18T10:01:45.482Z,910.00
2023-04-18T10:02:45.535Z,1001.00
2023-04-18T10:03:45.516Z,684.00
2023-04-18T10:04:45.518Z,653.00
2023-04-18T10:05:45.588Z,636.00
2023-04-18T10:06:45.393Z,741.00
2023-04-18T10:07:45.416Z,660.00
2023-04-18T10:08:45.430Z,695.00
2023-04-18T10:09:45.385Z,735.00
2023-04-18T10:10:45.375Z,590.00
2023-04-18T10:11:45.361Z,536.00
2023-04-18T10:12:45.351Z,540.00
2023-04-18T10:13:45.343Z,542.00
2023-04-18T10:14:45.386Z,400.00
2023-04-18T10:15:45.344Z,439.00
2023-04-18T10:16:45.333Z,537.00
2023-04-18T10:17:56.165Z,542.00
2023-04-18T10:18:46.332Z,545.00
2023-04-18T10:19:45.325Z,563.00
2023-04-18T10:20:45.312Z,589.00
2023-04-18T10:21:45.452Z,600.00
2023-04-18T10:22:45.276Z,595.00
2023-04-18T10:23:45.265Z,643.00
2023-04-18T10:24:45.281Z,749.00
2023-04-18T10:25:45.266Z,931.00
2023-04-18T10:26:45.453Z,840.00
2023-04-18T10:27:45.282Z,879.00
2023-04-18T10:28:46.005Z,957.00
2023-04-18T10:29:45.248Z,1154.00
2023-04-18T10:30:45.290Z,1180.00
2023-04-18T10:31:45.344Z,1231.00
2023-04-18T10:32:45.419Z,1342.00
2023-04-18T10:33:52.800Z,1390.00
2023-04-18T10:34:46.364Z,1304.00
2023-04-18T10:35:45.365Z,1247.00
2023-04-18T10:36:45.337Z,1299.00
2023-04-18T10:37:45.342Z,1361.00
2023-04-18T10:38:45.451Z,1356.00
2023-04-18T10:39:45.336Z,1359.00
2023-04-18T10:40:45.450Z,1399.00
2023-04-18T10:41:45.323Z,1447.00
2023-04-18T10:42:45.322Z,1431.00
2023-04-18T10:43:45.322Z,1532.00
2023-04-18T10:44:45.309Z,1582.00
2023-04-18T10:45:45.298Z,1568.00
2023-04-18T10:46:45.333Z,1452.00
2023-04-18T10:47:45.499Z,1346.00
2023-04-18T10:48:45.339Z,1520.00
2023-04-18T10:49:45.367Z,1659.00
2023-04-18T10:50:45.389Z,1786.00
2023-04-18T10:51:45.403Z,1824.00
2023-04-18T10:52:45.459Z,1881.00
2023-04-18T10:53:45.507Z,1928.00
2023-04-18T10:54:45.514Z,1990.00
2023-04-18T10:55:45.620Z,2070.00
2023-04-18T10:56:45.599Z,2155.00
2023-04-18T10:57:45.788Z,2209.00
2023-04-18T10:58:45.681Z,2206.00
2023-04-18T10:59:45.744Z,2207.00
2023-04-18T11:00:46.404Z,2202.00
2023-04-18T11:01:45.799Z,2199.00
2023-04-18T11:02:45.898Z,2169.00
2023-04-18T11:03:45.919Z,2066.00
2023-04-18T11:04:45.944Z,2066.00
2023-04-18T11:05:45.921Z,2065.00
2023-04-18T11:06:45.939Z,2069.00
2023-04-18T11:07:45.940Z,1998.00
2023-04-18T11:08:45.973Z,1856.00
2023-04-18T11:09:45.986Z,1827.00
2023-04-18T11:10:46.006Z,1709.00
2023-04-18T11:11:46.038Z,1732.00
2023-04-18T11:12:46.066Z,1653.00
2023-04-18T11:13:46.120Z,1536.00
2023-04-18T11:14:46.216Z,1545.00
2023-04-18T11:15:46.253Z,1575.00
2023-04-18T11:16:46.508Z,1545.00
2023-04-18T11:17:46.313Z,1750.00
2023-04-18T11:18:46.297Z,1649.00
2023-04-18T11:19:46.394Z,1775.00
2023-04-18T11:20:46.408Z,1865.00
2023-04-18T11:21:46.445Z,1932.00
2023-04-18T11:22:46.576Z,1948.00
2023-04-18T11:23:46.499Z,1881.00
2023-04-18T11:24:46.531Z,2063.00
2023-04-18T11:25:46.539Z,2194.00
2023-04-18T11:26:46.590Z,2157.00
2023-04-18T11:27:46.601Z,2184.00
2023-04-18T11:28:46.622Z,2262.00
2023-04-18T11:29:46.612Z,2287.00
2023-04-18T11:30:46.641Z,2312.00
2023-04-18T11:31:46.697Z,2355.00
2023-04-18T11:32:46.684Z,2286.00
2023-04-18T11:33:46.703Z,2248.00
2023-04-18T11:34:46.736Z,2203.00
2023-04-18T11:35:46.751Z,2165.00
2023-04-18T11:36:46.740Z,2164.00
2023-04-18T11:37:46.755Z,2148.00
2023-04-18T11:38:46.773Z,2188.00
2023-04-18T11:39:46.798Z,2198.00
2023-04-18T11:40:46.796Z,2178.00
2023-04-18T11:41:46.843Z,2198.00
2023-04-18T11:42:46.881Z,2192.00
2023-04-18T11:43:47.022Z,2187.00
2023-04-18T11:44:46.950Z,2196.00
2023-04-18T11:45:47.004Z,2192.00
2023-04-18T11:46:47.067Z,2176.00
2023-04-18T11:47:47.178Z,2133.00
2023-04-18T11:48:47.147Z,2143.00
2023-04-18T11:49:47.176Z,2165.00
2023-04-18T11:50:47.241Z,2158.00
2023-04-18T11:51:47.284Z,2179.00
2023-04-18T11:52:47.305Z,2177.00
2023-04-18T11:53:47.324Z,2154.00
2023-04-18T11:54:47.443Z,2166.00
2023-04-18T11:55:47.421Z,2182.00
2023-04-18T11:56:47.491Z,2154.00
2023-04-18T11:57:47.550Z,2179.00
2023-04-18T11:58:47.559Z,2174.00
2023-04-18T11:59:47.564Z,2183.00
2023-04-18T12:00:47.579Z,2206.00
2023-04-18T12:01:47.852Z,2194.00
2023-04-18T12:02:47.721Z,2192.00
2023-04-18T12:03:47.791Z,2186.00
2023-04-18T12:04:47.828Z,2174.00
2023-04-18T12:05:47.865Z,2193.00
2023-04-18T12:06:47.717Z,2181.00
2023-04-18T12:07:47.762Z,2148.00
2023-04-18T12:08:47.780Z,2155.00
2023-04-18T12:09:47.802Z,2187.00
2023-04-18T12:10:47.969Z,2174.00
2023-04-18T12:11:47.895Z,2162.00
2023-04-18T12:12:47.897Z,2198.00
2023-04-18T12:13:47.925Z,2202.00